createdAt,value
2023-04-07T00:01:46.723Z,98.29
2023-04-07T00:06:53.293Z,98.39
2023-04-07T00:12:03.032Z,98.33
2023-04-07T00:17:09.610Z,98.42
2023-04-07T00:22:16.378Z,98.50
2023-04-07T00:27:24.562Z,98.57
2023-04-07T00:32:31.611Z,98.75
2023-04-07T00:37:39.675Z,99.07
2023-04-07T00:42:47.638Z,99.33
2023-04-07T00:47:54.329Z,99.54
2023-04-07T00:53:02.706Z,99.48
2023-04-07T00:58:11.523Z,100.00
2023-04-07T01:03:27.901Z,100.00
2023-04-07T01:08:50.308Z,100.00
2023-04-07T01:14:01.867Z,100.00
2023-04-07T01:19:23.286Z,100.00
2023-04-07T01:25:04.705Z,100.00
2023-04-07T01:30:17.642Z,100.00
2023-04-07T01:35:25.823Z,100.00
2023-04-07T01:40:34.891Z,100.00
2023-04-07T01:45:44.082Z,100.00
2023-04-07T01:50:51.788Z,100.00
2023-04-07T01:55:58.231Z,100.00
2023-04-07T02:01:07.588Z,100.00
2023-04-07T02:06:21.286Z,100.00
2023-04-07T02:11:28.858Z,100.00
2023-04-07T02:16:43.440Z,100.00
2023-04-07T02:21:50.546Z,100.00
2023-04-07T02:26:57.716Z,100.00
2023-04-07T02:32:07.200Z,100.00
2023-04-07T02:37:13.486Z,100.00
2023-04-07T02:42:19.792Z,100.00
2023-04-07T02:47:27.709Z,100.00
2023-04-07T02:52:34.335Z,100.00
2023-04-07T02:57:43.671Z,100.00
2023-04-07T03:03:07.453Z,100.00
2023-04-07T03:08:17.101Z,100.00
2023-04-07T03:13:25.611Z,100.00
2023-04-07T03:18:33.480Z,100.00
2023-04-07T03:23:41.475Z,100.00
2023-04-07T03:28:48.198Z,100.00
2023-04-07T03:33:57.765Z,100.00
2023-04-07T03:39:04.969Z,100.00
2023-04-07T03:44:11.895Z,100.00
2023-04-07T03:49:21.506Z,100.00
2023-04-07T03:54:30.344Z,100.00
2023-04-07T03:59:37.750Z,100.00
2023-04-07T04:04:47.142Z,100.00
2023-04-07T04:09:54.967Z,100.00
2023-04-07T04:15:01.909Z,100.00
2023-04-07T04:20:13.173Z,100.00
2023-04-07T04:25:27.328Z,100.00
2023-04-07T04:30:37.258Z,100.00
2023-04-07T04:35:47.410Z,100.00
2023-04-07T04:40:57.006Z,100.00
2023-04-07T04:46:08.477Z,100.00
2023-04-07T04:51:22.377Z,100.00
2023-04-07T04:56:35.468Z,100.00
2023-04-07T05:01:43.673Z,100.00
2023-04-07T05:06:56.104Z,100.00
2023-04-07T05:12:07.128Z,100.00
2023-04-07T05:17:19.888Z,100.00
2023-04-07T05:22:28.223Z,100.00
2023-04-07T05:27:37.243Z,100.00
2023-04-07T05:32:50.262Z,100.00
2023-04-07T05:38:10.038Z,100.00
2023-04-07T05:43:17.023Z,100.00
2023-04-07T05:48:23.500Z,100.00
2023-04-07T05:53:31.720Z,100.00
2023-04-07T05:58:38.395Z,100.00
2023-04-07T06:03:47.205Z,100.00
2023-04-07T06:09:05.808Z,100.00
2023-04-07T06:14:14.079Z,100.00
2023-04-07T06:19:21.160Z,100.00
2023-04-07T06:24:29.656Z,100.00
2023-04-07T06:29:37.290Z,100.00
2023-04-07T06:34:46.497Z,100.00
2023-04-07T06:39:55.139Z,100.00
2023-04-07T06:45:01.945Z,100.00
2023-04-07T06:50:10.627Z,100.00
2023-04-07T06:55:19.467Z,100.00
2023-04-07T07:00:30.689Z,100.00
2023-04-07T07:05:37.535Z,100.00
2023-04-07T07:10:45.504Z,100.00
2023-04-07T07:15:52.856Z,100.00
2023-04-07T07:20:59.737Z,100.00
2023-04-07T07:26:08.871Z,100.00
2023-04-07T07:31:17.544Z,100.00
2023-04-07T07:36:29.671Z,100.00
2023-04-07T07:41:38.323Z,100.00
2023-04-07T07:46:48.089Z,100.00
2023-04-07T07:51:58.077Z,100.00
2023-04-07T07:57:11.407Z,100.00
2023-04-07T08:02:19.475Z,100.00
2023-04-07T08:07:27.866Z,100.00
2023-04-07T08:12:37.972Z,100.00
2023-04-07T08:17:50.784Z,100.00
2023-04-07T08:22:57.655Z,100.00
2023-04-07T08:28:05.857Z,100.00
2023-04-07T08:33:12.707Z,100.00
2023-04-07T08:38:20.074Z,100.00
2023-04-07T08:43:30.952Z,100.00
2023-04-07T08:48:39.875Z,100.00
2023-04-07T08:53:53.239Z,100.00
2023-04-07T08:59:02.981Z,100.00
2023-04-07T09:04:12.438Z,100.00
2023-04-07T09:09:19.715Z,100.00
2023-04-07T09:14:28.430Z,100.00
2023-04-07T09:19:36.116Z,100.00
2023-04-07T09:24:44.149Z,100.00
2023-04-07T09:29:52.050Z,100.00
2023-04-07T09:35:01.924Z,100.00
2023-04-07T09:40:11.491Z,100.00
2023-04-07T09:45:34.767Z,100.00
2023-04-07T09:50:50.102Z,100.00
2023-04-07T09:55:58.695Z,100.00
2023-04-07T10:01:10.305Z,100.00
2023-04-07T10:06:18.404Z,100.00
2023-04-07T10:11:27.093Z,100.00
2023-04-07T10:16:37.557Z,100.00
2023-04-07T10:21:46.202Z,99.79
2023-04-07T10:26:58.773Z,99.13
2023-04-07T10:32:19.807Z,98.94
2023-04-07T10:37:37.005Z,98.23
2023-04-07T10:42:56.646Z,97.04
2023-04-07T10:48:26.597Z,96.39
2023-04-07T10:54:31.679Z,96.06
2023-04-07T11:00:17.481Z,95.24
2023-04-07T11:05:30.556Z,95.18
2023-04-07T11:10:42.923Z,94.80
2023-04-07T11:15:54.194Z,95.40
2023-04-07T11:21:10.456Z,95.11
2023-04-07T11:26:28.473Z,95.22
2023-04-07T11:31:43.821Z,95.21
2023-04-07T11:37:00.539Z,94.61
2023-04-07T11:42:14.460Z,94.34
2023-04-07T11:47:39.539Z,93.24
2023-04-07T11:52:55.327Z,92.17
2023-04-07T11:58:20.003Z,92.30
2023-04-07T12:03:39.970Z,92.65
2023-04-07T12:09:02.986Z,92.96
2023-04-07T12:14:31.017Z,92.53
2023-04-07T12:19:52.706Z,93.07
2023-04-07T12:25:16.057Z,92.58
2023-04-07T12:30:29.584Z,91.93
2023-04-07T12:35:43.817Z,92.45
2023-04-07T12:41:08.515Z,92.69
2023-04-07T12:46:26.167Z,92.66
2023-04-07T12:51:40.184Z,92.52
2023-04-07T12:56:54.209Z,92.30
2023-04-07T13:02:06.283Z,92.60
2023-04-07T13:07:23.626Z,92.10
2023-04-07T13:12:45.225Z,92.02
2023-04-07T13:17:56.337Z,91.91
2023-04-07T13:23:12.572Z,90.58
2023-04-07T13:28:31.730Z,90.21
2023-04-07T13:33:41.703Z,90.93
2023-04-07T13:38:49.636Z,91.61
2023-04-07T13:44:02.867Z,94.18
2023-04-07T13:49:11.349Z,96.24
2023-04-07T13:54:23.613Z,96.93
2023-04-07T13:59:33.609Z,97.34
2023-04-07T14:04:44.074Z,97.83
2023-04-07T14:09:52.971Z,98.66
2023-04-07T14:15:02.698Z,98.78
2023-04-07T14:20:16.776Z,99.09
2023-04-07T14:25:26.087Z,99.81
2023-04-07T14:30:42.155Z,99.85
2023-04-07T14:35:52.419Z,99.90
2023-04-07T14:41:09.955Z,99.93
2023-04-07T14:46:22.607Z,100.00
2023-04-07T14:51:30.806Z,99.62
2023-04-07T14:56:38.204Z,99.93
2023-04-07T15:01:48.944Z,99.83
2023-04-07T15:07:02.998Z,100.00
2023-04-07T15:12:10.419Z,100.00
2023-04-07T15:17:19.143Z,95.49
2023-04-07T15:22:27.337Z,92.88
2023-04-07T15:27:37.915Z,91.76
2023-04-07T15:33:00.692Z,92.05
2023-04-07T15:38:10.659Z,91.93
2023-04-07T15:43:19.572Z,91.57
2023-04-07T15:48:32.690Z,92.50
2023-04-07T15:53:46.179Z,93.80
2023-04-07T15:58:57.559Z,94.01
2023-04-07T16:04:07.503Z,88.86
2023-04-07T16:09:19.884Z,90.24
2023-04-07T16:14:37.492Z,89.16
2023-04-07T16:20:01.749Z,85.33
2023-04-07T16:25:14.877Z,86.84
2023-04-07T16:30:27.918Z,88.34
2023-04-07T16:35:40.011Z,85.85
2023-04-07T16:41:03.264Z,86.76
2023-04-07T16:46:21.283Z,87.30
2023-04-07T16:51:33.593Z,88.46
2023-04-07T16:56:42.765Z,89.72
2023-04-07T17:01:57.214Z,90.72
2023-04-07T17:07:14.952Z,90.89
2023-04-07T17:12:28.569Z,90.77
2023-04-07T17:17:47.443Z,90.92
2023-04-07T17:23:11.352Z,90.75
2023-04-07T17:28:25.866Z,90.38
2023-04-07T17:33:42.918Z,90.94
2023-04-07T17:39:04.436Z,91.23
2023-04-07T17:44:23.294Z,91.16
2023-04-07T17:49:39.279Z,91.29
2023-04-07T17:55:01.382Z,91.90
2023-04-07T18:00:18.196Z,92.15
2023-04-07T18:05:34.653Z,90.00
2023-04-07T18:10:54.873Z,88.02
2023-04-07T18:16:13.538Z,86.68
2023-04-07T18:21:35.903Z,86.29
2023-04-07T18:26:53.971Z,85.64
2023-04-07T18:32:09.409Z,85.64
2023-04-07T18:37:27.151Z,84.30
2023-04-07T18:42:53.543Z,84.13
2023-04-07T18:48:07.805Z,84.39
2023-04-07T18:53:24.511Z,84.04
2023-04-07T18:58:45.198Z,84.35
2023-04-07T19:04:00.645Z,84.75
2023-04-07T19:09:16.344Z,84.62
2023-04-07T19:14:34.999Z,84.29
2023-04-07T19:19:51.601Z,85.10
2023-04-07T19:25:05.784Z,86.41
2023-04-07T19:30:26.433Z,87.46
2023-04-07T19:35:46.956Z,88.19
2023-04-07T19:41:03.737Z,89.16
2023-04-07T19:46:30.916Z,88.62
2023-04-07T19:51:46.870Z,88.60
2023-04-07T19:57:04.107Z,88.20
2023-04-07T20:02:32.529Z,89.07
2023-04-07T20:07:45.822Z,90.15
2023-04-07T20:13:00.471Z,90.93
2023-04-07T20:18:31.202Z,90.80
2023-04-07T20:23:47.720Z,89.37
2023-04-07T20:29:00.866Z,89.07
2023-04-07T20:34:21.819Z,88.40
2023-04-07T20:39:41.547Z,88.57
2023-04-07T20:45:04.304Z,88.43
2023-04-07T20:50:27.123Z,88.15
2023-04-07T20:55:44.218Z,88.78
2023-04-07T21:01:12.055Z,89.17
2023-04-07T21:06:32.968Z,88.75
2023-04-07T21:11:49.257Z,89.47
2023-04-07T21:17:04.613Z,89.31
2023-04-07T21:22:21.687Z,89.89
2023-04-07T21:27:43.390Z,88.93
2023-04-07T21:32:53.601Z,88.98
2023-04-07T21:38:02.759Z,89.81
2023-04-07T21:43:10.470Z,90.25
2023-04-07T21:48:21.336Z,91.08
2023-04-07T21:53:29.967Z,90.99
2023-04-07T21:58:38.392Z,91.02
2023-04-07T22:03:45.992Z,90.39
2023-04-07T22:09:01.690Z,89.79
2023-04-07T22:14:10.798Z,89.97
2023-04-07T22:19:18.445Z,90.48
2023-04-07T22:24:29.677Z,90.09
2023-04-07T22:29:37.747Z,89.41
2023-04-07T22:34:44.910Z,89.96
2023-04-07T22:39:52.900Z,89.89
2023-04-07T22:44:59.654Z,89.75
2023-04-07T22:50:09.404Z,89.97
2023-04-07T22:55:17.784Z,89.92
2023-04-07T23:00:24.271Z,89.72
2023-04-07T23:05:30.946Z,89.46
2023-04-07T23:10:40.053Z,89.73
2023-04-07T23:15:47.277Z,89.27
2023-04-07T23:20:53.928Z,89.95
2023-04-07T23:26:04.626Z,89.24
2023-04-07T23:31:11.104Z,89.70
2023-04-07T23:36:17.849Z,89.79
2023-04-07T23:41:26.062Z,89.83
2023-04-07T23:46:32.507Z,90.58
2023-04-07T23:51:38.919Z,91.06
2023-04-07T23:56:46.939Z,90.86
